Terminal Aerodrome Forecast
Issued by NWS St Louis, MO

Home | Current Version | Previous Version | Graphics & Text | Print | Product List | Glossary On
Versions: 1 2 3 4 5 6 7 8 9 10 11 12 13 14 15 16 17 18 19 20 21 22 23 24 25 26 27 28
000
FTUS43 KLSX 252100 AAB
TAFSTL
TAF AMD
KSTL 252106Z 2521/2624 17012G20KT P6SM SCT050 BKN250
     FM260100 17012KT P6SM SCT050 BKN250
     FM260900 17008KT 6SM -SHRA VCTS BKN020CB
     FM261400 20011KT P6SM SCT025=

USA.gov is the U.S. government's official web portal to all federal, state and local government web resources and services.